createdAt,value
2022-09-23T00:01:19.089Z,11.30
2022-09-23T00:03:46.358Z,11.70
2022-09-23T00:06:17.450Z,11.27
2022-09-23T00:08:44.242Z,11.15
2022-09-23T00:11:13.849Z,11.93
2022-09-23T00:13:42.089Z,11.27
2022-09-23T00:16:21.198Z,10.75
2022-09-23T00:18:50.272Z,11.15
2022-09-23T00:21:17.911Z,10.75
2022-09-23T00:23:44.791Z,10.50
2022-09-23T00:26:13.621Z,10.75
2022-09-23T00:28:40.758Z,10.35
2022-09-23T00:31:27.343Z,11.20
2022-09-23T00:33:59.927Z,10.27
2022-09-23T00:36:27.925Z,9.80
2022-09-23T00:38:55.152Z,10.05
2022-09-23T00:41:22.199Z,9.90
2022-09-23T00:43:54.698Z,10.07
2022-09-23T00:46:38.920Z,9.65
2022-09-23T00:49:38.029Z,9.77
2022-09-23T00:52:11.812Z,9.52
2022-09-23T00:54:39.183Z,9.00
2022-09-23T00:57:06.953Z,8.98
2022-09-23T00:59:34.056Z,8.93
2022-09-23T01:02:02.621Z,9.65
2022-09-23T01:04:30.166Z,9.23
2022-09-23T01:06:56.987Z,8.82
2022-09-23T01:09:24.691Z,8.65
2022-09-23T01:12:37.849Z,9.00
2022-09-23T01:15:07.612Z,8.60
2022-09-23T01:17:37.570Z,8.68
2022-09-23T01:20:39.400Z,8.10
2022-09-23T01:23:24.323Z,8.70
2022-09-23T01:26:00.113Z,9.05
2022-09-23T01:28:57.549Z,8.35
2022-09-23T01:31:48.950Z,8.27
2022-09-23T01:34:24.242Z,7.90
2022-09-23T01:36:55.306Z,7.97
2022-09-23T01:39:25.186Z,8.18
2022-09-23T01:42:03.698Z,7.70
2022-09-23T01:44:48.222Z,8.15
2022-09-23T01:47:19.469Z,7.50
2022-09-23T01:52:35.668Z,7.50
2022-09-23T01:55:10.486Z,7.47
2022-09-23T01:57:47.181Z,7.05
2022-09-23T02:00:16.093Z,7.25
2022-09-23T02:03:15.386Z,7.28
2022-09-23T02:05:48.735Z,7.47
2022-09-23T02:08:19.812Z,7.35
2022-09-23T02:11:11.243Z,6.72
2022-09-23T02:13:59.144Z,7.32
2022-09-23T02:16:39.425Z,7.13
2022-09-23T02:19:27.594Z,7.75
2022-09-23T02:22:03.617Z,7.22
2022-09-23T02:24:38.253Z,6.22
2022-09-23T02:27:32.031Z,6.03
2022-09-23T02:30:27.127Z,6.60
2022-09-23T02:32:57.067Z,7.20
2022-09-23T02:35:31.059Z,6.15
2022-09-23T02:38:21.372Z,6.60
2022-09-23T02:41:04.625Z,6.28
2022-09-23T02:43:54.789Z,5.75
2022-09-23T02:46:22.156Z,5.95
2022-09-23T02:48:53.057Z,5.68
2022-09-23T02:51:19.996Z,5.47
2022-09-23T02:53:47.374Z,6.13
2022-09-23T02:56:21.971Z,6.20
2022-09-23T02:58:50.089Z,5.50
2022-09-23T03:01:35.367Z,6.00
2022-09-23T03:04:14.807Z,5.82
2022-09-23T03:06:51.145Z,5.68
2022-09-23T03:09:35.056Z,5.63
2022-09-23T03:12:32.359Z,5.65
2022-09-23T03:15:08.288Z,5.75
2022-09-23T03:17:51.076Z,5.63
2022-09-23T03:20:29.334Z,5.00
2022-09-23T03:23:00.845Z,5.55
2022-09-23T03:25:31.553Z,5.80
2022-09-23T03:28:00.262Z,5.43
2022-09-23T03:30:28.377Z,5.33
2022-09-23T03:32:56.287Z,4.78
2022-09-23T03:35:28.736Z,5.30
2022-09-23T03:38:12.007Z,5.65
2022-09-23T03:40:43.658Z,5.30
2022-09-23T03:43:13.349Z,5.15
2022-09-23T03:48:08.129Z,5.15
2022-09-23T03:50:39.203Z,5.32
2022-09-23T03:53:06.891Z,4.75
2022-09-23T03:55:34.834Z,5.10
2022-09-23T03:58:03.161Z,5.18
2022-09-23T04:00:29.997Z,5.00
2022-09-23T04:02:57.169Z,4.85
2022-09-23T04:05:23.953Z,5.00
2022-09-23T04:07:51.116Z,5.22
2022-09-23T04:10:18.012Z,5.00
2022-09-23T04:12:44.777Z,5.13
2022-09-23T04:15:12.029Z,5.22
2022-09-23T04:17:38.825Z,4.88
2022-09-23T04:20:06.116Z,4.88
2022-09-23T04:22:34.098Z,4.63
2022-09-23T04:25:00.953Z,4.47
2022-09-23T04:27:27.809Z,4.68
2022-09-23T04:29:54.602Z,4.72
2022-09-23T04:32:21.377Z,4.72
2022-09-23T04:34:48.175Z,4.15
2022-09-23T04:37:14.957Z,4.40
2022-09-23T04:39:41.723Z,4.80
2022-09-23T04:42:08.580Z,4.00
2022-09-23T04:44:35.426Z,4.50
2022-09-23T04:47:02.641Z,4.57
2022-09-23T04:49:33.655Z,4.25
2022-09-23T04:52:00.685Z,4.03
2022-09-23T04:54:27.584Z,4.63
2022-09-23T04:56:54.368Z,4.30
2022-09-23T04:59:21.174Z,4.63
2022-09-23T05:01:48.091Z,4.15
2022-09-23T05:04:14.919Z,4.22
2022-09-23T05:06:45.103Z,3.90
2022-09-23T05:09:17.209Z,3.75
2022-09-23T05:11:45.524Z,4.07
2022-09-23T05:14:12.970Z,4.50
2022-09-23T05:16:40.278Z,4.20
2022-09-23T05:19:07.341Z,3.72
2022-09-23T05:21:34.232Z,4.00
2022-09-23T05:24:01.180Z,4.00
2022-09-23T05:26:30.004Z,4.18
2022-09-23T05:28:57.177Z,4.13
2022-09-23T05:31:25.985Z,4.25
2022-09-23T05:33:56.868Z,4.00
2022-09-23T05:36:24.682Z,4.28
2022-09-23T05:38:52.341Z,3.78
2022-09-23T05:41:21.390Z,4.30
2022-09-23T05:43:48.180Z,17.63
2022-09-23T05:46:17.077Z,13.65
2022-09-23T05:48:46.039Z,11.13
2022-09-23T05:51:32.360Z,10.95
2022-09-23T05:53:59.903Z,9.25
2022-09-23T05:56:28.393Z,8.27
2022-09-23T05:58:57.502Z,7.90
2022-09-23T06:01:27.091Z,7.53
2022-09-23T06:03:55.653Z,6.85
2022-09-23T06:06:40.178Z,6.45
2022-09-23T06:09:08.224Z,6.75
2022-09-23T06:11:35.924Z,6.30
2022-09-23T06:14:03.537Z,6.13
2022-09-23T06:16:32.878Z,5.78
2022-09-23T06:19:06.303Z,5.60
2022-09-23T06:21:35.504Z,5.80
2022-09-23T06:24:03.031Z,5.65
2022-09-23T06:26:33.750Z,5.40
2022-09-23T06:29:02.331Z,5.45
2022-09-23T06:31:29.608Z,5.20
2022-09-23T06:34:07.330Z,5.07
2022-09-23T06:36:43.174Z,5.20
2022-09-23T06:39:11.193Z,5.05
2022-09-23T06:41:38.356Z,5.22
2022-09-23T06:44:05.234Z,4.63
2022-09-23T06:46:32.240Z,5.15
2022-09-23T06:48:59.330Z,4.78
2022-09-23T06:51:26.157Z,16.13
2022-09-23T06:53:52.968Z,31.58
2022-09-23T06:56:22.013Z,34.35
2022-09-23T06:58:48.921Z,29.77
2022-09-23T07:01:16.961Z,30.85
2022-09-23T07:03:44.941Z,28.13
2022-09-23T07:06:12.199Z,24.40
2022-09-23T07:08:40.420Z,21.17
2022-09-23T07:11:09.045Z,18.42
2022-09-23T07:13:37.067Z,17.50
2022-09-23T07:16:04.576Z,16.23
2022-09-23T07:18:36.744Z,15.18
2022-09-23T07:21:15.752Z,13.80
2022-09-23T07:23:48.385Z,13.40
2022-09-23T07:26:16.464Z,12.57
2022-09-23T07:28:43.774Z,19.48
2022-09-23T07:31:13.369Z,57.72
2022-09-23T07:33:44.177Z,51.25
2022-09-23T07:36:13.671Z,44.03
2022-09-23T07:38:45.168Z,43.58
2022-09-23T07:41:15.012Z,37.58
2022-09-23T07:43:41.897Z,34.10
2022-09-23T07:46:16.492Z,30.10
2022-09-23T07:48:44.511Z,26.58
2022-09-23T07:51:18.944Z,24.00
2022-09-23T07:53:49.831Z,22.88
2022-09-23T07:56:19.346Z,23.38
2022-09-23T07:59:00.007Z,21.58
2022-09-23T08:01:29.481Z,20.73
2022-09-23T08:04:02.046Z,19.25
2022-09-23T08:06:29.279Z,19.88
2022-09-23T08:09:00.874Z,19.60
2022-09-23T08:11:28.264Z,31.00
2022-09-23T08:13:55.049Z,35.85
2022-09-23T08:16:22.198Z,30.73
2022-09-23T08:18:49.184Z,26.40
2022-09-23T08:21:22.715Z,24.70
2022-09-23T08:23:50.766Z,22.25
2022-09-23T08:26:21.617Z,20.63
2022-09-23T08:28:49.940Z,19.45
2022-09-23T08:31:16.903Z,19.88
2022-09-23T08:33:43.949Z,19.10
2022-09-23T08:36:10.807Z,18.50
2022-09-23T08:38:37.748Z,18.10
2022-09-23T08:41:29.433Z,17.45
2022-09-23T08:44:20.980Z,17.15
2022-09-23T08:47:36.374Z,16.67
2022-09-23T08:50:08.701Z,16.60
2022-09-23T09:17:31.776Z,13.80
2022-09-23T09:20:46.307Z,14.07
2022-09-23T09:24:02.275Z,14.30
2022-09-23T09:26:50.750Z,13.48
2022-09-23T09:29:41.858Z,13.10
2022-09-23T09:32:58.692Z,12.85
2022-09-23T09:36:06.611Z,12.80
2022-09-23T09:39:01.005Z,25.50
2022-09-23T09:45:58.024Z,16.42
2022-09-23T09:57:09.425Z,13.68
2022-09-23T10:18:10.182Z,11.90
2022-09-23T10:25:22.453Z,12.43
2022-09-23T10:27:49.272Z,12.13
2022-09-23T10:30:24.352Z,11.73
2022-09-23T10:32:53.130Z,12.05
2022-09-23T10:35:22.556Z,11.67
2022-09-23T10:38:06.525Z,11.38
2022-09-23T10:51:39.587Z,10.70
2022-09-23T10:54:41.418Z,10.63
2022-09-23T10:57:40.484Z,10.48
2022-09-23T11:00:23.190Z,10.27
2022-09-23T11:03:26.574Z,10.95
2022-09-23T11:06:24.974Z,10.25
2022-09-23T11:09:09.550Z,11.48
2022-09-23T11:11:41.985Z,11.88
2022-09-23T11:14:23.624Z,11.85
2022-09-23T11:17:17.618Z,11.32
2022-09-23T11:19:50.444Z,11.38
2022-09-23T11:22:20.373Z,10.73
2022-09-23T11:24:53.160Z,10.75
2022-09-23T11:27:34.870Z,10.73
2022-09-23T11:30:09.363Z,10.38
2022-09-23T11:33:13.415Z,10.93
2022-09-23T11:35:55.170Z,10.05
2022-09-23T11:41:25.667Z,10.02
2022-09-23T11:44:23.780Z,10.50
2022-09-23T11:46:57.676Z,9.30
2022-09-23T11:49:31.959Z,10.18
2022-09-23T11:52:43.220Z,9.77
2022-09-23T11:55:22.657Z,10.10
2022-09-23T11:58:22.993Z,9.50
2022-09-23T12:01:01.565Z,9.07
2022-09-23T12:06:27.071Z,9.10
2022-09-23T12:08:59.592Z,10.00
2022-09-23T12:14:42.970Z,9.25
2022-09-23T12:17:47.347Z,9.05
2022-09-23T12:20:21.426Z,9.50
2022-09-23T12:23:20.071Z,9.25
2022-09-23T12:25:53.788Z,8.80
2022-09-23T12:28:24.379Z,9.07
2022-09-23T12:30:54.258Z,8.90
2022-09-23T12:33:26.155Z,8.70
2022-09-23T12:36:07.144Z,8.65
2022-09-23T12:38:38.650Z,8.65
2022-09-23T12:41:26.464Z,8.48
2022-09-23T12:43:58.830Z,9.02
2022-09-23T12:46:27.380Z,8.90
2022-09-23T12:49:00.803Z,8.20
2022-09-23T12:51:37.252Z,8.75
2022-09-23T12:54:03.942Z,8.55
2022-09-23T12:56:36.198Z,8.25
2022-09-23T12:59:17.955Z,8.48
2022-09-23T13:01:45.071Z,8.30
2022-09-23T13:04:53.939Z,10.05
2022-09-23T13:07:27.147Z,13.07
2022-09-23T13:10:02.866Z,12.65
2022-09-23T13:12:32.452Z,10.77
2022-09-23T13:17:37.005Z,9.20
2022-09-23T13:20:21.006Z,9.63
2022-09-23T13:22:53.426Z,8.70
2022-09-23T13:25:23.117Z,8.65
2022-09-23T13:30:25.049Z,8.18
2022-09-23T13:33:17.086Z,8.95
2022-09-23T13:35:48.411Z,8.00
2022-09-23T13:38:26.743Z,8.20
2022-09-23T13:41:10.447Z,7.60
2022-09-23T13:43:43.021Z,8.02
2022-09-23T13:46:44.075Z,8.35
2022-09-23T13:49:22.302Z,8.02
2022-09-23T13:51:50.869Z,8.52
2022-09-23T13:54:33.313Z,8.00
2022-09-23T13:57:00.453Z,7.40
2022-09-23T13:59:29.921Z,8.00
2022-09-23T14:02:20.031Z,7.05
2022-09-23T14:04:47.025Z,8.20
2022-09-23T14:07:15.510Z,7.53
2022-09-23T14:09:44.323Z,6.90
2022-09-23T14:12:11.495Z,7.32
2022-09-23T14:14:40.375Z,7.53
2022-09-23T14:17:08.032Z,7.20
2022-09-23T14:19:36.166Z,7.10
2022-09-23T14:22:03.122Z,7.90
2022-09-23T14:24:29.857Z,10.68
2022-09-23T14:27:19.143Z,9.73
2022-09-23T14:29:47.632Z,8.02
2022-09-23T14:32:18.376Z,7.05
2022-09-23T14:34:46.772Z,6.80
2022-09-23T14:37:53.754Z,7.53
2022-09-23T14:40:26.353Z,7.43
2022-09-23T14:43:34.541Z,6.93
2022-09-23T14:46:01.335Z,6.65
2022-09-23T14:48:31.751Z,6.45
2022-09-23T14:51:03.949Z,7.25
2022-09-23T14:53:45.676Z,6.35
2022-09-23T14:56:14.031Z,6.82
2022-09-23T14:58:53.271Z,6.93
2022-09-23T15:01:32.368Z,7.20
2022-09-23T15:04:22.372Z,7.28
2022-09-23T15:07:08.688Z,6.32
2022-09-23T15:09:40.130Z,6.53
2022-09-23T15:12:12.256Z,6.57
2022-09-23T15:14:42.669Z,6.68
2022-09-23T15:17:24.466Z,6.22
2022-09-23T15:20:15.918Z,10.55
2022-09-23T15:22:54.010Z,30.08
2022-09-23T15:25:35.375Z,21.60
2022-09-23T15:28:06.586Z,14.27
2022-09-23T15:30:35.613Z,9.93
2022-09-23T15:33:02.768Z,10.10
2022-09-23T15:35:31.965Z,9.25
2022-09-23T15:38:00.550Z,9.00
2022-09-23T15:40:33.301Z,8.07
2022-09-23T15:43:07.471Z,8.90
2022-09-23T15:45:37.326Z,8.45
2022-09-23T15:48:21.164Z,8.15
2022-09-23T15:50:49.385Z,7.57
2022-09-23T15:53:24.485Z,8.07
2022-09-23T15:55:51.603Z,7.82
2022-09-23T15:58:20.312Z,7.15
2022-09-23T16:00:56.543Z,6.80
2022-09-23T16:03:32.735Z,7.50
2022-09-23T16:06:02.360Z,7.43
2022-09-23T16:10:56.383Z,7.18
2022-09-23T16:13:23.213Z,6.80
2022-09-23T16:15:50.094Z,6.70
2022-09-23T16:18:19.515Z,6.95
2022-09-23T16:20:47.300Z,7.20
2022-09-23T16:23:35.387Z,6.82
2022-09-23T16:26:09.826Z,6.15
2022-09-23T16:28:36.566Z,6.68
2022-09-23T16:31:03.325Z,6.50
2022-09-23T16:33:30.036Z,6.95
2022-09-23T16:35:56.845Z,6.88
2022-09-23T16:38:24.063Z,6.38
2022-09-23T16:40:50.885Z,6.40
2022-09-23T16:43:17.630Z,5.82
2022-09-23T16:45:45.792Z,5.72
2022-09-23T16:48:12.615Z,6.05
2022-09-23T16:50:40.250Z,6.00
2022-09-23T16:53:06.939Z,6.32
2022-09-23T16:55:33.597Z,5.78
2022-09-23T16:58:00.303Z,6.05
2022-09-23T17:00:45.485Z,5.78
2022-09-23T17:03:31.691Z,5.75
2022-09-23T17:05:58.724Z,6.00
2022-09-23T17:08:25.518Z,6.07
2022-09-23T17:10:58.242Z,5.80
2022-09-23T17:13:26.493Z,5.10
2022-09-23T17:15:53.599Z,5.80
2022-09-23T17:18:20.688Z,5.78
2022-09-23T17:21:01.991Z,5.30
2022-09-23T17:23:31.316Z,4.90
2022-09-23T17:26:01.874Z,5.43
2022-09-23T17:28:29.103Z,5.25
2022-09-23T17:30:58.244Z,6.15
2022-09-23T17:33:26.666Z,5.70
2022-09-23T17:35:54.490Z,5.30
2022-09-23T17:38:28.037Z,5.40
2022-09-23T17:40:57.231Z,5.35
2022-09-23T17:43:25.791Z,5.30
2022-09-23T17:45:54.476Z,5.25
2022-09-23T17:48:22.305Z,5.40
2022-09-23T17:50:59.030Z,5.40
2022-09-23T17:53:26.159Z,5.70
2022-09-23T17:55:57.344Z,6.65
2022-09-23T17:58:28.060Z,7.10
2022-09-23T18:00:55.954Z,6.30
2022-09-23T18:03:24.113Z,5.90
2022-09-23T18:05:51.033Z,6.57
2022-09-23T18:08:17.793Z,5.63
2022-09-23T18:10:44.818Z,5.75
2022-09-23T18:13:11.656Z,5.50
2022-09-23T18:15:39.188Z,5.15
2022-09-23T18:18:06.424Z,5.50
2022-09-23T18:20:33.266Z,6.65
2022-09-23T18:22:59.961Z,22.90
2022-09-23T18:25:39.318Z,43.58
2022-09-23T18:28:06.611Z,35.72
2022-09-23T18:30:33.527Z,29.98
2022-09-23T18:33:00.307Z,24.17
2022-09-23T18:35:28.333Z,20.45
2022-09-23T18:37:56.009Z,18.27
2022-09-23T18:40:22.863Z,15.43
2022-09-23T18:42:50.275Z,14.13
2022-09-23T18:45:17.001Z,14.00
2022-09-23T18:48:02.112Z,13.63
2022-09-23T18:50:43.940Z,12.70
2022-09-23T18:53:10.740Z,12.88
2022-09-23T18:55:37.627Z,12.13
2022-09-23T18:58:07.294Z,11.90
2022-09-23T19:03:01.910Z,11.05
2022-09-23T19:05:28.783Z,11.32
2022-09-23T19:07:55.510Z,10.50
2022-09-23T19:10:22.333Z,10.63
2022-09-23T19:12:49.188Z,10.68
2022-09-23T19:15:16.488Z,10.38
2022-09-23T19:17:43.245Z,10.63
2022-09-23T19:20:10.338Z,32.65
2022-09-23T19:22:37.077Z,117.80
2022-09-23T19:25:04.315Z,94.72
2022-09-23T19:27:31.097Z,69.22
2022-09-23T19:29:57.831Z,50.15
2022-09-23T19:32:26.690Z,43.30
2022-09-23T19:34:53.629Z,36.17
2022-09-23T19:37:20.846Z,34.05
2022-09-23T19:39:47.629Z,32.33
2022-09-23T19:42:14.468Z,31.98
2022-09-23T19:44:41.403Z,31.42
2022-09-23T19:47:15.173Z,30.67
2022-09-23T19:49:42.071Z,29.88
2022-09-23T19:52:08.831Z,28.85
2022-09-23T19:54:35.767Z,27.23
2022-09-23T19:57:02.629Z,27.00
2022-09-23T19:59:29.310Z,26.00
2022-09-23T20:01:56.149Z,25.73
2022-09-23T20:04:22.993Z,24.83
2022-09-23T20:06:49.717Z,23.30
2022-09-23T20:09:16.425Z,60.20
2022-09-23T20:11:44.160Z,58.88
2022-09-23T20:14:11.815Z,47.83
2022-09-23T20:16:38.806Z,37.97
2022-09-23T20:19:05.944Z,34.08
2022-09-23T20:21:33.746Z,30.83
2022-09-23T20:24:01.385Z,28.95
2022-09-23T20:26:46.645Z,27.75
2022-09-23T20:29:13.443Z,26.42
2022-09-23T20:31:41.078Z,27.13
2022-09-23T20:34:08.309Z,26.55
2022-09-23T20:36:35.359Z,26.08
2022-09-23T20:39:05.684Z,26.15
2022-09-23T20:41:36.596Z,24.73
2022-09-23T20:44:05.740Z,24.70
2022-09-23T20:46:32.759Z,23.42
2022-09-23T20:48:59.607Z,23.35
2022-09-23T20:51:26.377Z,22.67
2022-09-23T20:53:53.208Z,21.35
2022-09-23T20:56:21.357Z,21.33
2022-09-23T20:58:48.625Z,22.52
2022-09-23T21:01:16.309Z,21.20
2022-09-23T21:03:44.896Z,52.20
2022-09-23T21:06:13.938Z,106.45
2022-09-23T21:08:41.324Z,85.97
2022-09-23T21:11:11.734Z,69.60
2022-09-23T21:13:38.682Z,57.30
2022-09-23T21:16:07.969Z,50.13
2022-09-23T21:18:37.964Z,41.50
2022-09-23T21:21:05.942Z,39.05
2022-09-23T21:23:38.051Z,35.75
2022-09-23T21:26:17.034Z,36.72
2022-09-23T21:28:45.519Z,34.92
2022-09-23T21:31:24.072Z,34.22
2022-09-23T21:33:56.785Z,34.43
2022-09-23T21:36:24.546Z,31.30
2022-09-23T21:38:52.011Z,31.73
2022-09-23T21:41:19.458Z,31.92
2022-09-23T21:43:46.497Z,30.88
2022-09-23T21:46:15.333Z,29.92
2022-09-23T21:48:42.773Z,28.80
2022-09-23T21:51:16.228Z,28.38
2022-09-23T21:53:44.331Z,27.65
2022-09-23T21:56:21.062Z,28.55
2022-09-23T21:58:48.640Z,27.45
2022-09-23T22:01:16.509Z,26.80
2022-09-23T22:03:44.557Z,26.85
2022-09-23T22:06:13.641Z,26.58
2022-09-23T22:08:42.560Z,25.13
2022-09-23T22:11:32.406Z,25.98
2022-09-23T22:14:01.909Z,24.13
2022-09-23T22:16:29.532Z,23.35
2022-09-23T22:18:58.200Z,24.13
2022-09-23T22:21:26.598Z,23.92
2022-09-23T22:24:03.255Z,23.00
2022-09-23T22:26:33.404Z,24.25
2022-09-23T22:29:19.134Z,22.63
2022-09-23T22:32:04.600Z,23.17
2022-09-23T22:34:49.103Z,23.20
2022-09-23T22:37:19.974Z,21.13
2022-09-23T22:42:14.166Z,21.77
2022-09-23T22:44:40.935Z,20.88
2022-09-23T22:47:09.144Z,21.48
2022-09-23T22:49:36.032Z,21.08
2022-09-23T22:52:04.043Z,19.92
2022-09-23T22:54:33.922Z,19.98
2022-09-23T22:57:03.104Z,19.77
2022-09-23T22:59:29.871Z,18.98
2022-09-23T23:01:59.109Z,19.85
2022-09-23T23:04:27.022Z,19.05
2022-09-23T23:06:53.713Z,19.88
2022-09-23T23:09:20.428Z,18.45
2022-09-23T23:11:47.385Z,18.90
2022-09-23T23:14:16.401Z,18.77
2022-09-23T23:16:46.506Z,18.92
2022-09-23T23:19:17.105Z,17.98
2022-09-23T23:21:45.320Z,18.30
2022-09-23T23:24:23.334Z,17.15
2022-09-23T23:26:50.855Z,17.77
2022-09-23T23:29:19.807Z,17.67
2022-09-23T23:31:47.182Z,17.10
2022-09-23T23:34:16.250Z,18.08
2022-09-23T23:36:43.873Z,16.85
2022-09-23T23:39:11.463Z,16.83
2022-09-23T23:41:39.463Z,17.20
2022-09-23T23:44:07.786Z,15.80
2022-09-23T23:46:37.274Z,17.33
2022-09-23T23:51:31.194Z,15.63
2022-09-23T23:53:59.088Z,15.90
2022-09-23T23:56:26.466Z,15.85
2022-09-23T23:58:54.948Z,15.18
